• Join FlightAware (Why Join?)
  • Login
  • US Flag 
01:23AM EDT


 

Airport Tracker/Info


-or-


 

Live Flight TrackerFlight Track Log ✈ CMF5HF ✈ 21-Nov-2013 ✈ I69 - KCDW

Flight Track Log - Related Links

Times and Time Zones

All times are in EST time to prevent confusion due to time zone crossing. See the CMF5HF flight status page for this flight to view local times or setup timezone preferences in your user account.

Time Position Orientation Groundspeed Altitude Reporting Facility
EST Latitude Longitude Course Direction KTS MPH feet Rate Location/Type
09:41AM 39.1131 -84.0572 72° East 171 197 5,100  Level Indianapolis Center
09:42AM 39.1289 -83.9942 72° East 180 207 6,500 1,320 Climbing Indianapolis Center
09:43AM 39.1439 -83.9300 73° East 186 214 7,900 1,320 Climbing Indianapolis Center
09:44AM 39.1567 -83.8622 76° East 193 222 9,300 1,440 Climbing Indianapolis Center
09:45AM 39.1750 -83.7775 74° East 202 232 10,900 1,440 Climbing Indianapolis Center
09:47AM 39.1917 -83.7056 73° East 209 241 12,300 1,320 Climbing Indianapolis Center
09:48AM 39.2072 -83.6300 75° East 217 250 13,700 1,260 Climbing Indianapolis Center
09:49AM 39.2247 -83.5564 73° East 217 250 15,000 1,200 Climbing Indianapolis Center
09:50AM 39.2406 -83.4794 75° East 223 257 16,200 1,140 Climbing Indianapolis Center
09:51AM 39.2625 -83.3842 73° East 233 268 17,400 840 Climbing Indianapolis Center
09:52AM 39.2806 -83.3025 74° East 239 275 18,000 720 Climbing Indianapolis Center
09:53AM 39.2997 -83.2169 74° East 247 284 19,000 960 Climbing Indianapolis Center
09:54AM 39.3178 -83.1297 75° East 252 290 20,000 900 Climbing Indianapolis Center
09:55AM 39.3375 -83.0456 73° East 247 284 20,900 480 Climbing Indianapolis Center
09:56AM 39.3603 -82.9369 75° East 261 300 21,000  Climbing Indianapolis Center
09:57AM 39.3822 -82.8364 74° East 287 330 21,000  Level Indianapolis Center
09:58AM 39.4044 -82.7339 74° East 297 342 21,000  Level Indianapolis Center
09:59AM 39.4264 -82.6314 74° East 298 343 21,000  Level Indianapolis Center
10:00AM 39.4481 -82.5281 75° East 299 344 21,000  Level Indianapolis Center
10:01AM 39.4706 -82.4258 74° East 297 342 21,000  Level Indianapolis Center
10:02AM 39.4967 -82.3006 75° East 301 346 21,000  Level Indianapolis Center
10:03AM 39.5181 -82.1978 75° East 299 344 21,000  Level Indianapolis Center
10:04AM 39.5397 -82.0950 75° East 298 343 21,000  Level Indianapolis Center
10:05AM 39.5614 -81.9919 75° East 297 342 21,000  Level Indianapolis Center
10:06AM 39.5822 -81.8864 76° East 299 344 21,000  Level Indianapolis Center
10:07AM 39.6036 -81.7856 75° East 292 336 21,000  Level Indianapolis Center
10:08AM 39.6272 -81.6667 76° East 284 327 21,000  Level Indianapolis Center
10:09AM 39.6475 -81.5692 75° East 280 322 21,000  Level Indianapolis Center
10:10AM 39.6681 -81.4697 75° East 283 326 21,000  Level Indianapolis Center
10:11AM 39.6875 -81.3736 75° East 277 319 21,000  Level Indianapolis Center
10:12AM 39.7072 -81.2747 75° East 280 322 21,000  Level Indianapolis Center
10:13AM 39.7269 -81.1750 76° East 282 325 21,000  Level Indianapolis Center
10:14AM 39.7469 -81.0744 75° East 286 329 21,000  Level Indianapolis Center
10:15AM 39.7708 -80.9519 76° East 291 335 21,000  Level Indianapolis Center
10:17AM 39.7908 -80.8503 76° East 291 335 21,000  Level Indianapolis Center
10:18AM 39.8114 -80.7458 76° East 295 339 21,000  Level Indianapolis Center
10:19AM 39.8311 -80.6433 76° East 293 337 21,000  Level Indianapolis Center
10:20AM 39.8511 -80.5406 76° East 292 336 21,000  Level Indianapolis Center
10:21AM 39.8722 -80.4442 74° East 293 337 21,000  Level Cleveland Center
10:22AM 39.9072 -80.3506 64° Northeast 292 336 21,000  Level Cleveland Center
10:23AM 39.9569 -80.2692 51° Northeast 290 334 21,000  Level Cleveland Center
10:24AM 39.9897 -80.1500 70° East 295 339 21,000  Level Cleveland Center
10:25AM 40.0075 -80.0467 77° East 296 341 21,000  Level Cleveland Center
10:26AM 40.0261 -79.9431 77° East 295 339 21,000  Level Cleveland Center
10:27AM 40.0439 -79.8403 77° East 294 338 21,000  Level Cleveland Center
10:28AM 40.0622 -79.7375 77° East 294 338 21,000  Level Cleveland Center
10:29AM 40.0836 -79.6139 77° East 293 337 21,000  Level Cleveland Center
10:30AM 40.1019 -79.5111 77° East 294 338 21,000  Level Cleveland Center
10:31AM 40.1189 -79.4075 78° East 293 337 21,000  Level Cleveland Center
10:32AM 40.1381 -79.2972 77° East 294 338 21,000  Level Cleveland Center
10:33AM 40.1542 -79.1972 78° East 287 330 21,000  Level Cleveland Center
10:34AM 40.1717 -79.0975 77° East 284 327 21,000  Level Cleveland Center
10:35AM 40.1928 -78.9789 77° East 282 325 21,000  Level Cleveland Center
10:36AM 40.2075 -78.8797 79° East 280 322 21,000  Level Cleveland Center
10:37AM 40.2247 -78.7789 77° East 285 328 21,000  Level Cleveland Center
10:38AM 40.2414 -78.6792 78° East 284 327 21,000  Level Cleveland Center
10:39AM 40.2572 -78.5825 78° East 278 320 21,000  Level Cleveland Center
10:40AM 40.2764 -78.4642 78° East 278 320 21,000  Level Cleveland Center
10:41AM 40.2922 -78.3672 78° East 276 318 21,000  Level Cleveland Center
10:42AM 40.3083 -78.2697 78° East 276 318 21,000  Level Cleveland Center
10:43AM 40.3244 -78.1700 78° East 279 321 21,000  Level Cleveland Center
10:44AM 40.3403 -78.0714 78° East 279 321 21,000  Level Cleveland Center
10:45AM 40.3581 -77.9533 79° East 278 320 21,000  Level Cleveland Center
10:46AM 40.3733 -77.8686 77° East 274 315 21,000  Level New York Center
10:47AM 40.3875 -77.7692 79° East 274 315 21,000  Level New York Center
10:48AM 40.4042 -77.6644 78° East 274 315 21,000  Level New York Center
10:49AM 40.4200 -77.5706 77° East 279 321 21,000  Level New York Center
10:50AM 40.4342 -77.4683 80° East 284 327 21,000  Level New York Center
10:51AM 40.4506 -77.3608 79° East 289 333 21,000  Level New York Center
10:52AM 40.4672 -77.2478 79° East 294 338 21,000  Level New York Center
10:53AM 40.4856 -77.1403 77° East 294 338 21,000 -300 Level New York Center
10:54AM 40.5019 -77.0325 79° East 294 338 20,500 -660 Descending New York Center
10:55AM 40.5281 -76.9311 71° East 301 346 19,700 -900 Descending New York Center
10:56AM 40.5572 -76.8081 73° East 309 356 18,800 -900 Descending New York Center
10:57AM 40.5817 -76.6981 74° East 315 362 17,900 -540 Descending New York Center
10:58AM 40.6053 -76.5992 73° East 315 362 17,800 -720 Descending New York Center
10:59AM 40.6314 -76.4892 73° East 315 362 16,500 -1,500 Descending New York Center
11:00AM 40.6583 -76.3656 74° East 315 362 14,900 -1,500 Descending New York Center
11:01AM 40.6839 -76.2608 72° East 315 362 13,500 -1,380 Descending New York Center
11:02AM 40.7075 -76.1558 73° East 309 356 12,200 -1,140 Descending New York Center
11:03AM 40.7283 -76.0672 73° East 286 329 11,300 -660 Descending New York Center
11:04AM 40.7517 -75.9650 73° East 274 315 10,900 -180 Descending New York Center
11:05AM 40.7719 -75.8814 72° East 263 303 11,000 -180 Climbing New York Center
11:06AM 40.7925 -75.7897 73° East 258 297 10,600 -600 Descending New York Center
11:07AM 40.8178 -75.6819 73° East 268 308 9,900 -600 Descending New York Center
11:08AM 40.8386 -75.5847 74° East 274 315 9,400 -600 Descending New York Center
11:09AM 40.8592 -75.4847 75° East 281 323 8,800 -600 Descending New York Center
11:10AM 40.8817 -75.3903 72° East 281 323 8,300 -600 Descending New York Center
11:11AM 40.9019 -75.2953 74° East 276 318 7,600 -720 Descending New York Center
11:12AM 40.9197 -75.2114 74° East 266 306 6,900 -960 Descending New York Center
11:13AM 40.9400 -75.1194 74° East 259 298 5,700 -960 Descending New York Center
11:14AM 40.9619 -75.0300 72° East 247 284 5,000 -420 Descending New York Center
11:15AM 40.9606 -74.9531 91° East 220 253 4,900 -540 Descending New York Center
11:16AM 40.9469 -74.8617 101° East 235 270 4,000 -480 Descending New York Center
11:17AM 40.9375 -74.7758 98° East 242 278 4,000  Level New York Center
11:18AM 40.9275 -74.6956 99° East 226 260 4,000 -480 Level New York Center
11:19AM 40.9178 -74.6128 99° East 226 260 3,100 -540 Descending New York Center
11:20AM 40.9058 -74.5353 102° East 215 247 3,000 -60 Descending New York Center
11:21AM 40.8936 -74.4631 103° East 201 231 3,000 -360 Level New York Center
11:22AM 40.8767 -74.3964 109° East 196 226 2,300 -720 Descending New York Center
11:23AM 40.8667 -74.3500 106° East 187 215 1,700 -780 Descending New York TRACON
11:24AM 40.8500 -74.2833 108° East 143 165 900 -840 Descending New York TRACON
11:27AM 40.8752 -74.2814 315° West  Level Estimated
11:34AM 40.8752 -74.2814 315° West  Level Estimated
11:35AM 40.8752 -74.2814 315° West  Level Estimated